Time;durP1;ratioP1;P1;durP2;ratioP2;P2;SDS_P1;SDS_P2;PMS_P1;PMS_P2;Temp;Humidity;BMP_temperature;BMP_pressure;BME280_temperature;BME280_humidity;BME280_pressure;Samples;Min_cycle;Max_cycle;Signal;HPM_P1;HPM_P2
2022/08/21 00:02:03;;;;;;;6.32;2.10;;;12.60;87.50;;;;;;5037209;28;20175;-81
2022/08/21 00:04:30;;;;;;;4.25;1.67;;;12.60;87.60;;;;;;5041323;28;20021;-81
2022/08/21 00:06:56;;;;;;;6.85;2.20;;;12.60;87.60;;;;;;5037174;28;20037;-81
2022/08/21 00:09:22;;;;;;;2.70;1.60;;;12.60;87.60;;;;;;5038770;28;20473;-81
2022/08/21 00:11:48;;;;;;;5.30;1.80;;;12.50;87.70;;;;;;5037920;28;20025;-82
2022/08/21 00:14:14;;;;;;;5.72;2.08;;;12.50;88.00;;;;;;5024810;28;20018;-82
2022/08/21 00:16:40;;;;;;;5.70;2.13;;;12.50;88.30;;;;;;5036787;28;20034;-82
2022/08/21 00:19:06;;;;;;;3.25;1.85;;;12.40;88.40;;;;;;5040211;28;20036;-82
2022/08/21 00:21:33;;;;;;;6.55;2.00;;;12.40;88.60;;;;;;5040337;28;20045;-81
2022/08/21 00:23:59;;;;;;;3.53;2.10;;;12.40;88.60;;;;;;5037030;28;20060;-81
2022/08/21 00:26:26;;;;;;;8.85;2.08;;;12.40;88.50;;;;;;5040061;28;20037;-81
2022/08/21 00:28:51;;;;;;;6.18;2.10;;;12.40;88.80;;;;;;5033027;28;20030;-82
2022/08/21 00:31:17;;;;;;;6.00;1.83;;;12.40;88.70;;;;;;5037604;28;20080;-81
2022/08/21 00:33:44;;;;;;;9.27;2.15;;;12.40;89.00;;;;;;5039089;28;20025;-82
2022/08/21 00:36:10;;;;;;;5.85;2.35;;;12.30;88.90;;;;;;5037437;28;20057;-83
2022/08/21 00:38:36;;;;;;;5.57;2.00;;;12.30;88.90;;;;;;5033876;28;20128;-83
2022/08/21 00:41:07;;;;;;;5.20;1.90;;;12.30;88.90;;;;;;5035529;28;20104;-82
2022/08/21 00:43:35;;;;;;;4.07;1.83;;;12.30;88.60;;;;;;5030385;28;20030;-83
2022/08/21 00:46:03;;;;;;;4.90;1.80;;;12.30;88.80;;;;;;5040789;28;20052;-83
2022/08/21 00:48:28;;;;;;;7.40;2.20;;;12.30;89.20;;;;;;5038624;28;20053;-83
2022/08/21 00:51:08;;;;;;;4.43;1.80;;;12.20;88.80;;;;;;5037336;28;20052;-83
2022/08/21 00:53:37;;;;;;;3.38;1.83;;;12.20;88.40;;;;;;5053440;28;20125;-82
2022/08/21 00:56:05;;;;;;;5.22;2.08;;;12.20;88.70;;;;;;5032885;28;20452;-82
2022/08/21 00:58:31;;;;;;;4.22;1.98;;;12.20;88.70;;;;;;5034787;28;20389;-83
2022/08/21 01:00:59;;;;;;;3.38;1.77;;;12.10;88.80;;;;;;5051140;28;20030;-83
2022/08/21 01:03:25;;;;;;;5.85;2.03;;;12.10;89.00;;;;;;5040271;28;20026;-82
2022/08/21 01:05:51;;;;;;;5.57;1.90;;;12.10;89.40;;;;;;5038556;28;20025;-82
2022/08/21 01:08:18;;;;;;;5.97;2.20;;;12.20;89.70;;;;;;5041101;28;20033;-83
2022/08/21 01:10:45;;;;;;;4.30;2.30;;;12.20;89.60;;;;;;5038128;28;20109;-82
2022/08/21 01:13:13;;;;;;;4.97;2.10;;;12.10;89.60;;;;;;5044104;28;20030;-83
2022/08/21 01:15:44;;;;;;;5.20;2.00;;;12.10;90.20;;;;;;5037466;28;20121;-82
2022/08/21 01:18:11;;;;;;;5.72;2.17;;;12.10;89.90;;;;;;5035611;28;20038;-83
2022/08/21 01:20:41;;;;;;;4.20;1.98;;;12.10;89.70;;;;;;5039696;28;20030;-82
2022/08/21 01:23:07;;;;;;;6.18;2.08;;;12.00;89.40;;;;;;5034863;28;20052;-83
2022/08/21 01:25:33;;;;;;;4.85;2.47;;;12.10;89.50;;;;;;5040864;28;20029;-82
2022/08/21 01:28:06;;;;;;;5.38;2.33;;;12.10;90.20;;;;;;5044491;28;20083;-82
2022/08/21 01:30:36;;;;;;;6.78;2.10;;;12.10;90.10;;;;;;5037504;28;20230;-83
2022/08/21 01:33:02;;;;;;;5.63;1.85;;;12.10;89.90;;;;;;5028506;28;20026;-83
2022/08/21 01:35:27;;;;;;;5.55;2.33;;;12.00;89.70;;;;;;5033783;28;20034;-82
2022/08/21 01:37:53;;;;;;;5.20;2.35;;;12.10;89.70;;;;;;5032515;28;20588;-83
2022/08/21 01:40:19;;;;;;;4.75;2.05;;;12.00;89.90;;;;;;5036404;28;20037;-82
2022/08/21 01:42:46;;;;;;;7.20;1.92;;;12.00;89.80;;;;;;5039012;28;20033;-83
2022/08/21 01:45:13;;;;;;;9.98;2.40;;;12.00;89.80;;;;;;5035894;28;20049;-82
2022/08/21 01:47:38;;;;;;;7.40;2.20;;;12.00;90.00;;;;;;5034082;28;20025;-82
2022/08/21 01:50:07;;;;;;;4.90;2.30;;;12.00;90.00;;;;;;5037689;28;20052;-82
2022/08/21 01:52:33;;;;;;;5.32;1.90;;;12.00;89.90;;;;;;5037292;28;20386;-82
2022/08/21 01:54:59;;;;;;;5.78;2.17;;;12.00;89.80;;;;;;5038297;28;20121;-82
2022/08/21 01:57:24;;;;;;;7.90;2.20;;;12.00;90.10;;;;;;5032892;28;20113;-83
2022/08/21 01:59:50;;;;;;;6.35;2.20;;;11.90;90.20;;;;;;5036401;28;20081;-82
2022/08/21 02:02:15;;;;;;;5.30;2.00;;;11.90;90.20;;;;;;5036362;28;20037;-82
2022/08/21 02:04:41;;;;;;;6.00;2.25;;;11.80;90.20;;;;;;5037984;28;20033;-83
2022/08/21 02:07:06;;;;;;;4.45;1.85;;;11.80;90.60;;;;;;5036997;28;20056;-83
2022/08/21 02:09:33;;;;;;;4.72;2.00;;;11.80;90.70;;;;;;5037739;28;20025;-82
2022/08/21 02:11:59;;;;;;;4.30;1.92;;;11.80;90.60;;;;;;5037846;28;20025;-82
2022/08/21 02:14:25;;;;;;;6.20;2.00;;;11.70;90.30;;;;;;5030596;28;20036;-83
2022/08/21 02:16:50;;;;;;;4.85;1.75;;;11.80;90.20;;;;;;5040296;28;20092;-82
2022/08/21 02:19:17;;;;;;;5.95;2.10;;;11.80;90.50;;;;;;5034134;28;20025;-83
2022/08/21 02:21:43;;;;;;;6.13;2.13;;;11.80;90.90;;;;;;5038236;28;20044;-83
2022/08/21 02:24:09;;;;;;;4.28;1.83;;;11.80;91.10;;;;;;5043478;28;20095;-83
2022/08/21 02:26:35;;;;;;;5.78;2.28;;;11.80;91.10;;;;;;5043741;28;20018;-83
2022/08/21 02:29:01;;;;;;;4.38;2.00;;;11.80;91.20;;;;;;5042918;28;20037;-82
2022/08/21 02:31:26;;;;;;;4.72;2.08;;;11.80;91.10;;;;;;5042632;28;20357;-83
2022/08/21 02:33:52;;;;;;;5.93;2.25;;;11.80;91.20;;;;;;5040931;28;20044;-82
2022/08/21 02:36:18;;;;;;;5.65;2.42;;;11.80;90.80;;;;;;5038157;28;20038;-82
2022/08/21 02:38:44;;;;;;;7.20;2.20;;;11.70;90.70;;;;;;5042338;28;20037;-82
2022/08/21 02:41:21;;;;;;;6.20;2.85;;;11.70;90.70;;;;;;5038334;28;20037;-83
2022/08/21 02:43:46;;;;;;;5.13;2.38;;;11.70;90.80;;;;;;5036814;28;20503;-82
2022/08/21 02:46:14;;;;;;;5.78;2.70;;;11.70;90.60;;;;;;5041320;28;20053;-83
2022/08/21 02:48:41;;;;;;;5.75;2.53;;;11.80;90.90;;;;;;5039469;28;20063;-82
2022/08/21 02:51:17;;;;;;;6.50;2.72;;;11.70;91.20;;;;;;5053762;28;20465;-82
2022/08/21 02:53:43;;;;;;;6.28;2.35;;;11.70;91.20;;;;;;5039737;28;20049;-83
2022/08/21 02:56:12;;;;;;;5.57;2.50;;;11.70;91.20;;;;;;5038491;28;20109;-83
2022/08/21 02:58:49;;;;;;;5.32;2.40;;;11.70;91.30;;;;;;5037305;28;20040;-83
2022/08/21 03:01:15;;;;;;;6.72;2.70;;;11.70;91.30;;;;;;5038090;28;20085;-82
2022/08/21 03:03:43;;;;;;;8.57;2.58;;;11.70;91.30;;;;;;5034198;28;20037;-82
2022/08/21 03:06:11;;;;;;;4.15;2.20;;;11.70;91.50;;;;;;5029078;28;20025;-83
2022/08/21 03:08:37;;;;;;;4.00;2.08;;;11.70;91.60;;;;;;5041761;28;20492;-82
2022/08/21 03:11:03;;;;;;;7.82;2.97;;;11.70;92.10;;;;;;5042122;28;20032;-83
2022/08/21 03:13:29;;;;;;;6.90;3.08;;;11.70;92.10;;;;;;5038332;28;20495;-82
2022/08/21 03:15:55;;;;;;;7.63;3.03;;;11.70;92.20;;;;;;5039618;28;20139;-82
2022/08/21 03:18:21;;;;;;;8.85;2.60;;;11.70;92.30;;;;;;5028768;28;20040;-83
2022/08/21 03:20:47;;;;;;;7.63;2.72;;;11.70;92.10;;;;;;5039193;28;20025;-82
2022/08/21 03:23:15;;;;;;;5.72;2.70;;;11.70;92.20;;;;;;5039352;28;20535;-82
2022/08/21 03:25:41;;;;;;;7.30;2.63;;;11.60;92.10;;;;;;5034352;28;20060;-83
2022/08/21 03:28:19;;;;;;;5.38;2.22;;;11.60;92.00;;;;;;5042380;28;20017;-82
2022/08/21 03:30:46;;;;;;;5.70;2.45;;;11.60;91.70;;;;;;5038872;28;20093;-83
2022/08/21 03:33:13;;;;;;;4.88;2.33;;;11.50;91.60;;;;;;5036755;28;20063;-82
2022/08/21 03:35:41;;;;;;;6.25;2.50;;;11.60;92.10;;;;;;5040259;28;20449;-82
2022/08/21 03:38:07;;;;;;;4.47;2.17;;;11.50;92.10;;;;;;5039672;28;20480;-83
2022/08/21 03:40:32;;;;;;;6.30;2.30;;;11.50;91.90;;;;;;5038547;28;20147;-83
2022/08/21 03:42:58;;;;;;;4.18;2.13;;;11.50;92.10;;;;;;5036321;28;20038;-83
2022/08/21 03:45:25;;;;;;;8.43;2.53;;;11.50;92.80;;;;;;5024008;28;20532;-82
2022/08/21 03:48:02;;;;;;;4.30;2.28;;;11.40;93.00;;;;;;5039275;28;20025;-83
2022/08/21 03:50:35;;;;;;;4.97;2.13;;;11.40;93.00;;;;;;5035970;28;20029;-83
2022/08/21 03:53:00;;;;;;;4.60;2.15;;;11.30;92.70;;;;;;5035752;28;20022;-82
2022/08/21 03:55:27;;;;;;;4.28;2.22;;;11.20;92.80;;;;;;5034715;28;20029;-82
2022/08/21 03:57:53;;;;;;;4.78;2.40;;;11.10;92.90;;;;;;5031327;28;20124;-82
2022/08/21 04:00:19;;;;;;;6.35;2.53;;;11.10;92.90;;;;;;5037307;28;20052;-82
2022/08/21 04:02:45;;;;;;;3.50;2.30;;;11.00;93.10;;;;;;5024188;28;20072;-83
2022/08/21 04:05:13;;;;;;;6.18;2.28;;;11.00;93.20;;;;;;5034806;28;20354;-82
2022/08/21 04:07:39;;;;;;;6.63;2.45;;;10.90;93.10;;;;;;5028376;28;20026;-81
2022/08/21 04:10:07;;;;;;;10.25;2.60;;;10.90;93.20;;;;;;5033429;28;20668;-81
2022/08/21 04:12:32;;;;;;;5.57;2.58;;;10.90;93.00;;;;;;5033750;28;20014;-80
2022/08/21 04:14:58;;;;;;;7.03;2.85;;;10.90;92.90;;;;;;5034091;28;20104;-81
2022/08/21 04:17:23;;;;;;;7.50;3.30;;;11.10;93.50;;;;;;5033206;28;20071;-78
2022/08/21 04:19:49;;;;;;;5.65;2.92;;;11.20;93.60;;;;;;5032291;28;20049;-79
2022/08/21 04:22:16;;;;;;;8.18;3.65;;;11.30;93.50;;;;;;5031499;28;20067;-81
2022/08/21 04:24:42;;;;;;;7.68;3.50;;;11.40;93.50;;;;;;5032829;28;20069;-79
2022/08/21 04:27:07;;;;;;;6.00;3.15;;;11.50;93.20;;;;;;5033552;28;20488;-79
2022/08/21 04:29:33;;;;;;;6.43;3.08;;;11.60;93.30;;;;;;5030112;28;20022;-77
2022/08/21 04:31:59;;;;;;;10.27;3.38;;;11.60;93.20;;;;;;5030406;28;20038;-79
2022/08/21 04:34:24;;;;;;;4.45;2.88;;;11.70;93.00;;;;;;5031716;28;20030;-77
2022/08/21 04:36:50;;;;;;;8.10;3.15;;;11.70;92.80;;;;;;5029864;28;20030;-78
2022/08/21 04:39:15;;;;;;;6.25;3.05;;;11.80;92.80;;;;;;5029061;28;20038;-78
2022/08/21 04:41:41;;;;;;;5.53;2.63;;;11.80;92.80;;;;;;5031412;28;20021;-78
2022/08/21 04:44:08;;;;;;;6.53;3.10;;;12.00;92.70;;;;;;5033432;28;20365;-80
2022/08/21 04:46:34;;;;;;;5.18;2.40;;;12.20;92.50;;;;;;5028299;28;20044;-80
2022/08/21 04:48:59;;;;;;;5.03;2.38;;;12.30;92.10;;;;;;5033916;28;20373;-78
2022/08/21 04:51:31;;;;;;;5.85;2.17;;;12.50;91.80;;;;;;5035229;28;20512;-78
2022/08/21 04:54:10;;;;;;;6.47;2.53;;;12.60;91.50;;;;;;5019827;28;20048;-78
2022/08/21 04:56:41;;;;;;;4.70;1.90;;;12.80;91.20;;;;;;5026385;28;20036;-78
2022/08/21 04:59:18;;;;;;;4.80;2.22;;;12.90;90.90;;;;;;5023828;28;20041;-78
2022/08/21 05:01:44;;;;;;;6.65;2.00;;;13.00;90.30;;;;;;5030753;28;20034;-78
2022/08/21 05:04:12;;;;;;;3.22;1.50;;;13.20;89.90;;;;;;5034606;28;20024;-78
2022/08/21 05:06:41;;;;;;;7.85;1.95;;;13.40;89.30;;;;;;5034209;28;20037;-78
2022/08/21 05:09:09;;;;;;;4.55;1.80;;;13.50;88.90;;;;;;5029151;28;20022;-78
2022/08/21 05:11:35;;;;;;;5.07;1.90;;;13.50;88.80;;;;;;5023186;28;20061;-79
2022/08/21 05:14:00;;;;;;;4.47;1.80;;;13.60;88.80;;;;;;5028675;28;20120;-79
2022/08/21 05:16:26;;;;;;;5.38;2.13;;;13.50;88.60;;;;;;5030593;28;20480;-78
2022/08/21 05:18:52;;;;;;;5.97;1.67;;;13.60;88.20;;;;;;5030568;28;20040;-78
2022/08/21 05:21:17;;;;;;;4.68;1.52;;;13.70;87.80;;;;;;5032337;28;20034;-79
2022/08/21 05:23:43;;;;;;;2.88;1.38;;;13.80;87.90;;;;;;5030166;28;20021;-78
2022/08/21 05:26:08;;;;;;;5.32;1.92;;;13.90;87.70;;;;;;5027992;28;20064;-78
2022/08/21 05:28:34;;;;;;;6.25;2.03;;;14.00;87.40;;;;;;5033052;28;20021;-80
2022/08/21 05:31:00;;;;;;;6.07;1.75;;;14.00;86.80;;;;;;5034232;28;20048;-78
2022/08/21 05:33:25;;;;;;;7.10;1.50;;;14.10;86.70;;;;;;5032571;28;20179;-79
2022/08/21 05:35:53;;;;;;;5.38;1.60;;;14.20;85.00;;;;;;5023314;28;20029;-78
2022/08/21 05:38:19;;;;;;;5.03;1.50;;;14.30;84.00;;;;;;5031020;28;20033;-78
2022/08/21 05:40:46;;;;;;;5.35;1.38;;;14.40;83.90;;;;;;5024690;28;20521;-78
2022/08/21 05:43:11;;;;;;;2.72;1.08;;;14.50;83.40;;;;;;5030540;28;20025;-78
2022/08/21 05:45:37;;;;;;;4.32;1.38;;;14.60;82.80;;;;;;5030932;28;20480;-78
2022/08/21 05:48:07;;;;;;;5.03;1.40;;;14.70;82.70;;;;;;5030941;28;20386;-78
2022/08/21 05:50:32;;;;;;;6.20;1.58;;;14.80;82.70;;;;;;5031333;28;20637;-78
2022/08/21 05:52:58;;;;;;;5.30;1.60;;;14.80;82.80;;;;;;5023971;28;20049;-78
2022/08/21 05:55:23;;;;;;;4.85;1.33;;;14.90;82.70;;;;;;5031146;28;20036;-78
2022/08/21 05:57:49;;;;;;;3.30;1.13;;;15.00;82.60;;;;;;5032380;28;20029;-79
2022/08/21 06:00:16;;;;;;;5.90;1.10;;;15.20;82.60;;;;;;5032051;28;20539;-78
2022/08/21 06:02:41;;;;;;;4.80;1.20;;;15.30;82.10;;;;;;5027612;28;20040;-78
2022/08/21 06:05:07;;;;;;;6.63;1.77;;;15.50;82.40;;;;;;5027849;28;20413;-78
2022/08/21 06:07:33;;;;;;;5.45;1.50;;;15.60;82.00;;;;;;5026303;28;20025;-78
2022/08/21 06:09:59;;;;;;;6.25;1.70;;;15.70;82.20;;;;;;5031192;28;20392;-78
2022/08/21 06:12:25;;;;;;;5.50;1.67;;;15.70;82.20;;;;;;5030998;28;20025;-81
2022/08/21 06:14:52;;;;;;;3.35;1.30;;;15.60;82.20;;;;;;5030282;28;20022;-78
2022/08/21 06:17:18;;;;;;;5.18;1.42;;;15.60;82.20;;;;;;5043062;28;20812;-79
2022/08/21 06:19:43;;;;;;;3.28;1.67;;;15.60;82.40;;;;;;5031175;28;20034;-78
2022/08/21 06:22:09;;;;;;;9.02;1.38;;;15.60;82.30;;;;;;5028513;28;20037;-79
2022/08/21 06:24:35;;;;;;;4.28;1.60;;;15.60;82.40;;;;;;5029324;28;20096;-77
2022/08/21 06:27:07;;;;;;;4.35;1.33;;;15.60;82.30;;;;;;5026128;28;20017;-78
2022/08/21 06:29:34;;;;;;;6.70;1.52;;;15.70;82.30;;;;;;5030534;28;20029;-78
2022/08/21 06:32:00;;;;;;;7.80;1.58;;;15.80;82.20;;;;;;5028108;28;20121;-80
2022/08/21 06:34:25;;;;;;;2.85;1.30;;;16.00;81.50;;;;;;5028046;28;20061;-78
2022/08/21 06:36:51;;;;;;;2.58;1.30;;;16.20;81.30;;;;;;5026751;28;20032;-79
2022/08/21 06:39:16;;;;;;;5.03;1.45;;;16.40;81.50;;;;;;5019826;28;20484;-81
2022/08/21 06:41:42;;;;;;;3.28;1.35;;;16.50;81.00;;;;;;5032601;28;20060;-79
2022/08/21 06:44:07;;;;;;;5.80;1.58;;;16.70;80.90;;;;;;5031871;28;20022;-81
2022/08/21 06:46:33;;;;;;;3.17;1.30;;;16.80;80.00;;;;;;5025680;28;20485;-80
2022/08/21 06:48:59;;;;;;;3.08;1.20;;;17.00;79.80;;;;;;5037988;28;20040;-78
2022/08/21 06:51:25;;;;;;;4.68;1.45;;;17.10;79.50;;;;;;5027660;28;20036;-78
2022/08/21 06:53:51;;;;;;;6.90;1.60;;;17.20;78.60;;;;;;5032063;28;20033;-79
2022/08/21 06:56:17;;;;;;;4.57;1.65;;;17.30;79.40;;;;;;5028339;28;20482;-80
2022/08/21 06:58:43;;;;;;;4.97;1.50;;;17.30;78.90;;;;;;5027463;28;20052;-79
2022/08/21 07:01:08;;;;;;;8.55;1.38;;;17.50;79.00;;;;;;5032270;28;20128;-79
2022/08/21 07:03:37;;;;;;;5.68;1.25;;;17.60;78.50;;;;;;5030761;28;20033;-80
2022/08/21 07:06:04;;;;;;;3.17;1.38;;;17.60;77.30;;;;;;5041031;28;20060;-79
2022/08/21 07:08:30;;;;;;;2.95;1.30;;;17.70;77.60;;;;;;5049580;28;20091;-79
2022/08/21 07:10:58;;;;;;;5.50;1.52;;;17.70;77.70;;;;;;5027648;28;20037;-80
2022/08/21 07:13:23;;;;;;;6.05;1.58;;;17.70;77.60;;;;;;5029079;28;20098;-80
2022/08/21 07:15:49;;;;;;;6.57;1.45;;;17.60;77.90;;;;;;5028365;28;20037;-80
2022/08/21 07:18:15;;;;;;;7.25;1.52;;;17.70;78.00;;;;;;5031174;28;20040;-79
2022/08/21 07:20:41;;;;;;;2.95;1.15;;;17.80;78.60;;;;;;5031866;28;20120;-80
2022/08/21 07:23:22;;;;;;;7.60;1.63;;;18.00;78.40;;;;;;5034477;28;20041;-80
2022/08/21 07:25:48;;;;;;;3.63;1.40;;;18.10;77.50;;;;;;5032943;28;20029;-80
2022/08/21 07:28:13;;;;;;;3.25;1.45;;;18.20;77.80;;;;;;5033522;28;20029;-80
2022/08/21 07:30:39;;;;;;;5.32;1.90;;;18.40;76.40;;;;;;5034773;28;20404;-80
2022/08/21 07:33:04;;;;;;;4.78;1.40;;;18.50;76.60;;;;;;5032887;28;20029;-81
2022/08/21 07:35:31;;;;;;;8.65;1.63;;;18.60;76.00;;;;;;5034483;28;20124;-79
2022/08/21 07:37:56;;;;;;;8.65;2.05;;;18.70;76.00;;;;;;5034490;28;20045;-79
2022/08/21 07:40:22;;;;;;;5.35;1.80;;;19.00;76.00;;;;;;5035551;28;20041;-79
2022/08/21 07:42:51;;;;;;;5.25;1.90;;;19.00;75.40;;;;;;5031949;28;20080;-80
2022/08/21 07:45:18;;;;;;;4.65;1.48;;;19.30;74.50;;;;;;5032513;28;20485;-80
2022/08/21 07:47:44;;;;;;;11.13;2.22;;;19.30;74.30;;;;;;5033360;28;20058;-79
2022/08/21 07:50:11;;;;;;;6.60;1.80;;;19.50;73.50;;;;;;5035127;28;20033;-81
2022/08/21 07:52:38;;;;;;;8.35;2.38;;;19.50;73.50;;;;;;5035094;28;20135;-79
2022/08/21 07:55:04;;;;;;;6.82;2.22;;;19.70;71.30;;;;;;5032421;28;20103;-79
2022/08/21 07:57:29;;;;;;;5.55;1.80;;;19.80;71.00;;;;;;5042513;28;20116;-80
2022/08/21 07:59:55;;;;;;;5.93;1.75;;;20.00;70.90;;;;;;5023668;28;20458;-82
2022/08/21 08:02:26;;;;;;;6.43;1.77;;;20.10;70.90;;;;;;5033263;28;20041;-80
2022/08/21 08:04:51;;;;;;;5.90;1.70;;;20.20;71.10;;;;;;5028663;28;20056;-79
2022/08/21 08:07:17;;;;;;;8.85;1.73;;;20.30;70.40;;;;;;5030089;28;20469;-81
2022/08/21 08:09:43;;;;;;;10.88;2.38;;;20.50;68.90;;;;;;5031231;28;20388;-79
2022/08/21 08:12:09;;;;;;;9.00;2.10;;;20.50;67.20;;;;;;5035627;28;20061;-79
2022/08/21 08:14:35;;;;;;;7.72;2.00;;;20.50;67.90;;;;;;5033502;28;20550;-80
2022/08/21 08:17:02;;;;;;;5.57;2.28;;;20.50;67.80;;;;;;5032227;28;20060;-81
2022/08/21 08:19:27;;;;;;;6.10;2.00;;;20.60;68.00;;;;;;5031888;28;20034;-79
2022/08/21 08:21:53;;;;;;;9.68;2.20;;;20.80;68.10;;;;;;5031764;28;20041;-80
2022/08/21 08:24:19;;;;;;;6.88;2.00;;;20.90;68.10;;;;;;5037101;28;20086;-79
2022/08/21 08:26:44;;;;;;;8.13;2.25;;;21.20;67.50;;;;;;5027321;28;20025;-81
2022/08/21 08:29:10;;;;;;;5.40;2.10;;;21.10;67.90;;;;;;5036281;28;20481;-82
2022/08/21 08:31:35;;;;;;;7.70;2.40;;;21.20;66.30;;;;;;5032431;28;20044;-80
2022/08/21 08:34:01;;;;;;;5.15;1.95;;;21.30;66.30;;;;;;5032333;28;20116;-80
2022/08/21 08:36:38;;;;;;;5.97;2.38;;;21.50;66.50;;;;;;5034879;28;20045;-79
2022/08/21 08:39:05;;;;;;;8.20;2.10;;;21.40;65.70;;;;;;5033616;28;20076;-80
2022/08/21 08:41:32;;;;;;;8.10;2.08;;;21.60;65.30;;;;;;5029549;28;20625;-80
2022/08/21 08:44:04;;;;;;;7.55;1.77;;;21.70;65.50;;;;;;5028605;28;20026;-79
2022/08/21 08:46:36;;;;;;;8.30;2.08;;;21.90;65.10;;;;;;5028687;28;20513;-81
2022/08/21 08:49:09;;;;;;;11.82;2.38;;;22.00;64.40;;;;;;5033231;28;20022;-79
2022/08/21 08:52:11;;;;;;;5.43;1.67;;;22.10;63.70;;;;;;5028163;28;20068;-80
2022/08/21 08:54:44;;;;;;;6.55;1.77;;;22.10;64.00;;;;;;5014109;28;20034;-80
2022/08/21 08:57:19;;;;;;;7.28;2.05;;;22.20;63.60;;;;;;5027983;28;20444;-81
2022/08/21 08:59:48;;;;;;;8.10;1.63;;;22.20;63.30;;;;;;5027046;28;20412;-80
2022/08/21 09:02:15;;;;;;;6.88;1.48;;;22.40;63.40;;;;;;5031399;28;20439;-80
2022/08/21 09:04:42;;;;;;;6.28;1.88;;;22.60;61.90;;;;;;5030737;28;20026;-80
2022/08/21 09:07:22;;;;;;;6.03;1.83;;;22.60;61.50;;;;;;5032051;28;20056;-80
2022/08/21 09:10:09;;;;;;;6.05;1.80;;;22.50;60.90;;;;;;5022740;28;20084;-79
2022/08/21 09:12:51;;;;;;;8.38;1.83;;;22.60;61.70;;;;;;5023304;28;20040;-82
2022/08/21 09:15:58;;;;;;;6.40;2.08;;;22.80;61.20;;;;;;5029306;28;20563;-80
2022/08/21 09:18:45;;;;;;;3.58;1.58;;;22.70;58.60;;;;;;5027167;28;20033;-80
2022/08/21 09:21:37;;;;;;;4.63;1.48;;;22.90;56.90;;;;;;5030473;28;20034;-81
2022/08/21 09:24:22;;;;;;;6.55;1.67;;;22.80;58.80;;;;;;5028266;28;20087;-80
2022/08/21 09:26:54;;;;;;;7.88;2.17;;;23.00;59.60;;;;;;5033194;28;20025;-80
2022/08/21 09:29:23;;;;;;;2.75;1.17;;;23.10;58.90;;;;;;5030934;28;20033;-80
2022/08/21 09:31:49;;;;;;;5.72;1.95;;;23.50;58.10;;;;;;5034439;28;20420;-80
2022/08/21 09:34:32;;;;;;;5.95;1.70;;;23.30;55.80;;;;;;5031342;28;20031;-80
2022/08/21 09:36:59;;;;;;;5.82;1.45;;;23.30;56.40;;;;;;5027039;28;20029;-80
2022/08/21 09:39:31;;;;;;;6.90;1.80;;;23.90;56.30;;;;;;5031465;28;20080;-80
2022/08/21 09:42:01;;;;;;;5.53;1.70;;;23.70;54.80;;;;;;5027654;28;20041;-80
2022/08/21 09:44:29;;;;;;;6.38;1.85;;;23.70;55.30;;;;;;5030882;28;20041;-79
2022/08/21 09:46:55;;;;;;;5.03;1.55;;;23.50;55.80;;;;;;5032412;28;20122;-79
2022/08/21 09:49:32;;;;;;;4.40;1.65;;;23.90;56.00;;;;;;5030887;28;20053;-80
2022/08/21 09:51:59;;;;;;;5.90;1.48;;;23.80;53.10;;;;;;5034040;28;20524;-80
2022/08/21 09:54:34;;;;;;;4.68;1.35;;;23.80;52.50;;;;;;5030733;28;20067;-80
2022/08/21 10:00:10;;;;;;;3.90;1.25;;;23.70;52.00;;;;;;5021944;28;20036;-81
2022/08/21 10:02:35;;;;;;;3.83;1.50;;;23.20;53.50;;;;;;5030474;28;20030;-80
2022/08/21 10:05:23;;;;;;;5.78;1.33;;;22.70;55.00;;;;;;5028957;28;20465;-81
2022/08/21 10:07:49;;;;;;;4.72;1.40;;;23.00;53.20;;;;;;5023793;28;20018;-80
2022/08/21 10:10:20;;;;;;;3.22;1.40;;;22.70;52.80;;;;;;5031973;28;20029;-80
2022/08/21 10:13:08;;;;;;;3.90;1.27;;;22.60;53.30;;;;;;5030443;28;20033;-79
2022/08/21 10:15:50;;;;;;;3.70;1.17;;;22.50;53.50;;;;;;5031831;28;20026;-79
2022/08/21 10:18:35;;;;;;;3.55;1.50;;;22.80;52.80;;;;;;5023338;28;20030;-80
2022/08/21 10:21:24;;;;;;;3.63;1.33;;;23.50;51.90;;;;;;5014517;28;20029;-80
2022/08/21 10:24:15;;;;;;;5.90;1.17;;;23.90;50.90;;;;;;5025752;28;20034;-79
2022/08/21 10:27:02;;;;;;;5.32;1.20;;;24.50;50.70;;;;;;5024284;28;20222;-79
2022/08/21 10:29:44;;;;;;;2.83;0.88;;;24.90;49.90;;;;;;5024074;28;20540;-80
2022/08/21 10:32:16;;;;;;;5.55;1.23;;;25.30;48.50;;;;;;5022546;28;20039;-81
2022/08/21 10:35:15;;;;;;;4.22;1.23;;;25.10;47.90;;;;;;5022119;28;20034;-80
2022/08/21 10:38:13;;;;;;;3.33;1.05;;;25.00;48.10;;;;;;5025240;28;20105;-80
2022/08/21 10:40:47;;;;;;;2.53;0.98;;;25.30;47.30;;;;;;5022468;28;20034;-80
2022/08/21 10:43:38;;;;;;;2.85;0.93;;;25.60;47.50;;;;;;5028867;28;20045;-80
2022/08/21 10:46:14;;;;;;;5.28;1.13;;;25.70;46.50;;;;;;5026368;28;20042;-82
2022/08/21 10:48:57;;;;;;;6.90;1.10;;;25.40;46.30;;;;;;5025968;28;20037;-81
2022/08/21 10:51:45;;;;;;;3.80;0.90;;;25.30;46.00;;;;;;5025440;28;20451;-79
2022/08/21 10:54:35;;;;;;;4.03;0.88;;;25.00;47.60;;;;;;5022206;28;20098;-80
2022/08/21 10:57:09;;;;;;;6.57;1.23;;;25.50;47.00;;;;;;5022922;28;20025;-80
2022/08/21 10:59:44;;;;;;;2.97;0.93;;;25.70;45.80;;;;;;5027460;28;20040;-81
2022/08/21 11:02:35;;;;;;;4.28;1.33;;;25.70;45.20;;;;;;5027024;28;20032;-81
2022/08/21 11:05:13;;;;;;;4.30;1.02;;;25.90;45.90;;;;;;5026544;28;20362;-81
2022/08/21 11:07:51;;;;;;;4.65;1.17;;;26.10;45.70;;;;;;5027999;28;20034;-79
2022/08/21 11:10:25;;;;;;;2.92;1.00;;;25.70;45.40;;;;;;5023657;28;20323;-80
2022/08/21 11:12:59;;;;;;;4.05;1.10;;;25.00;47.00;;;;;;5028059;28;20025;-80
2022/08/21 11:15:34;;;;;;;5.57;1.27;;;24.80;46.90;;;;;;5023898;28;20722;-79
2022/08/21 11:18:09;;;;;;;4.05;1.05;;;24.40;48.30;;;;;;5025525;28;20396;-79
2022/08/21 11:20:46;;;;;;;5.72;1.10;;;24.80;48.40;;;;;;5024035;28;20132;-81
2022/08/21 11:23:21;;;;;;;6.10;1.00;;;25.80;46.40;;;;;;5044465;28;20031;-81
2022/08/21 11:25:52;;;;;;;3.45;0.90;;;26.10;44.50;;;;;;5022396;28;20021;-80
2022/08/21 11:28:29;;;;;;;4.45;1.15;;;25.70;46.10;;;;;;5028404;28;20705;-79
2022/08/21 11:31:12;;;;;;;3.65;1.00;;;25.00;46.90;;;;;;5035156;28;20013;-79
2022/08/21 11:33:52;;;;;;;4.72;1.10;;;25.50;45.90;;;;;;5034311;28;20075;-79
2022/08/21 11:36:24;;;;;;;;;;;25.70;45.30;;;;;;5032653;28;20025;-79
2022/08/21 11:39:13;;;;;;;5.75;1.25;;;24.90;46.90;;;;;;5027228;28;19913;-80
2022/08/21 11:41:57;;;;;;;3.00;0.90;;;24.40;48.10;;;;;;5028123;28;20056;-79
2022/08/21 11:44:53;;;;;;;4.40;1.13;;;24.20;49.40;;;;;;5039979;28;20129;-79
2022/08/21 11:48:00;;;;;;;4.15;0.93;;;24.80;47.70;;;;;;4993858;28;20065;-80
2022/08/21 11:50:31;;;;;;;4.63;1.35;;;24.90;48.30;;;;;;4982918;28;20446;-80
2022/08/21 11:53:28;;;;;;;3.78;1.25;;;24.30;49.00;;;;;;4974727;28;20031;-80
2022/08/21 11:56:03;;;;;;;6.90;1.35;;;24.40;48.60;;;;;;4985423;28;20082;-79
2022/08/21 11:58:40;;;;;;;5.53;1.15;;;25.00;47.30;;;;;;4982385;28;20027;-79
2022/08/21 12:01:10;;;;;;;3.75;1.13;;;24.80;47.00;;;;;;4986004;28;20038;-78
2022/08/21 12:03:40;;;;;;;4.13;1.20;;;24.40;48.30;;;;;;4979428;28;20021;-79
2022/08/21 12:06:13;;;;;;;5.38;1.10;;;24.50;48.30;;;;;;5009128;28;20445;-79
2022/08/21 12:08:42;;;;;;;5.53;1.20;;;24.20;48.80;;;;;;4986290;28;20026;-79
2022/08/21 12:11:21;;;;;;;9.10;1.48;;;24.20;50.20;;;;;;4979156;28;20474;-80
2022/08/21 12:14:04;;;;;;;7.88;1.17;;;23.90;50.00;;;;;;5001018;28;20112;-80
2022/08/21 12:16:38;;;;;;;5.03;1.50;;;24.10;49.80;;;;;;4989076;28;20930;-81
2022/08/21 12:19:20;;;;;;;5.90;1.40;;;25.20;48.00;;;;;;4983860;28;20034;-79
2022/08/21 12:22:02;;;;;;;4.18;1.23;;;26.20;45.80;;;;;;4973152;28;20069;-82
2022/08/21 12:24:33;;;;;;;3.20;1.15;;;26.80;43.90;;;;;;4974885;28;20022;-80
2022/08/21 12:27:21;;;;;;;3.08;1.35;;;25.90;44.60;;;;;;4985073;28;20367;-81
2022/08/21 12:29:54;;;;;;;5.47;1.50;;;26.10;44.60;;;;;;4971219;28;20042;-81
2022/08/21 12:32:24;;;;;;;5.25;1.42;;;27.30;42.60;;;;;;4976408;28;20039;-81
2022/08/21 12:34:55;;;;;;;3.80;1.25;;;27.60;43.10;;;;;;4980434;28;20035;-80
2022/08/21 12:37:41;;;;;;;2.70;1.00;;;27.80;40.10;;;;;;4981666;28;20027;-82
2022/08/21 12:40:33;;;;;;;7.43;1.30;;;28.10;38.40;;;;;;4988178;28;20026;-82
2022/08/21 12:43:01;;;;;;;3.78;1.15;;;28.30;40.10;;;;;;4981656;28;20023;-80
2022/08/21 12:45:40;;;;;;;6.22;1.23;;;28.90;40.20;;;;;;4991739;28;20224;-81
2022/08/21 12:48:14;;;;;;;5.10;1.10;;;29.00;38.90;;;;;;5031340;28;20491;-80
2022/08/21 12:51:09;;;;;;;4.18;1.30;;;29.30;38.60;;;;;;5028134;28;20357;-81
2022/08/21 12:53:52;;;;;;;4.15;1.27;;;29.00;38.40;;;;;;5022435;28;20094;-80
2022/08/21 12:56:21;;;;;;;4.20;1.45;;;28.30;39.60;;;;;;5029803;28;20093;-81
2022/08/21 12:58:54;;;;;;;4.43;1.20;;;28.00;40.00;;;;;;5026830;28;20041;-80
2022/08/21 13:01:33;;;;;;;2.25;0.90;;;28.10;40.60;;;;;;5029527;28;20033;-80
2022/08/21 13:04:03;;;;;;;4.30;1.08;;;27.80;39.90;;;;;;5024848;28;20018;-81
2022/08/21 13:06:36;;;;;;;4.28;1.23;;;27.50;40.50;;;;;;5026316;28;20029;-79
2022/08/21 13:09:06;;;;;;;3.10;1.10;;;26.60;42.60;;;;;;5029734;28;20397;-80